createdAt,value
2023-04-27T00:00:28.870Z,8.00
2023-04-27T00:02:57.910Z,9.52
2023-04-27T00:05:29.562Z,4.68
2023-04-27T00:07:58.096Z,5.43
2023-04-27T00:10:26.737Z,6.40
2023-04-27T00:12:55.015Z,8.93
2023-04-27T00:15:25.063Z,6.18
2023-04-27T00:17:53.571Z,8.73
2023-04-27T00:20:22.220Z,7.05
2023-04-27T00:22:50.765Z,5.43
2023-04-27T00:25:19.114Z,6.03
2023-04-27T00:27:47.428Z,5.93
2023-04-27T00:30:16.070Z,4.35
2023-04-27T00:32:45.847Z,8.00
2023-04-27T00:35:17.634Z,7.32
2023-04-27T00:37:45.961Z,10.23
2023-04-27T00:40:14.511Z,10.20
2023-04-27T00:42:42.842Z,4.25
2023-04-27T00:45:13.484Z,4.68
2023-04-27T00:47:42.622Z,4.20
2023-04-27T00:50:13.164Z,10.18
2023-04-27T00:52:41.761Z,3.78
2023-04-27T00:55:10.366Z,6.13
2023-04-27T00:57:40.630Z,7.95
2023-04-27T01:00:10.948Z,8.60
2023-04-27T01:02:40.264Z,4.68
2023-04-27T01:05:09.405Z,9.77
2023-04-27T01:07:40.641Z,5.28
2023-04-27T01:10:09.915Z,5.65
2023-04-27T01:12:38.270Z,7.55
2023-04-27T01:15:08.631Z,4.82
2023-04-27T01:17:37.315Z,5.07
2023-04-27T01:20:09.610Z,9.23
2023-04-27T01:22:39.751Z,6.60
2023-04-27T01:25:10.179Z,5.22
2023-04-27T01:27:39.970Z,5.07
2023-04-27T01:30:09.162Z,5.47
2023-04-27T01:32:38.918Z,7.85
2023-04-27T01:35:08.000Z,7.07
2023-04-27T01:37:36.910Z,5.05
2023-04-27T01:40:06.517Z,7.30
2023-04-27T01:42:36.212Z,6.90
2023-04-27T01:45:05.046Z,4.50
2023-04-27T01:47:33.413Z,3.80
2023-04-27T01:50:01.673Z,5.82
2023-04-27T01:52:30.013Z,5.28
2023-04-27T01:54:58.317Z,8.38
2023-04-27T01:57:26.761Z,4.97
2023-04-27T01:59:57.928Z,5.78
2023-04-27T02:02:26.524Z,6.18
2023-04-27T02:04:54.951Z,6.80
2023-04-27T02:07:23.180Z,4.68
2023-04-27T02:09:51.397Z,5.28
2023-04-27T02:12:19.636Z,7.85
2023-04-27T02:14:47.762Z,4.28
2023-04-27T02:17:17.285Z,2.95
2023-04-27T02:19:45.487Z,4.05
2023-04-27T02:22:13.660Z,5.60
2023-04-27T02:24:41.932Z,4.65
2023-04-27T02:27:11.283Z,4.38
2023-04-27T02:29:41.810Z,7.18
2023-04-27T02:32:10.420Z,5.07
2023-04-27T02:34:41.504Z,7.90
2023-04-27T02:37:09.847Z,4.47
2023-04-27T02:39:38.057Z,10.93
2023-04-27T02:42:07.857Z,8.13
2023-04-27T02:44:37.091Z,8.10
2023-04-27T02:47:05.477Z,6.03
2023-04-27T02:49:34.171Z,4.85
2023-04-27T02:52:04.904Z,5.32
2023-04-27T02:54:34.064Z,4.90
2023-04-27T02:57:02.337Z,4.13
2023-04-27T02:59:30.505Z,7.70
2023-04-27T03:01:59.122Z,10.90
2023-04-27T03:04:28.200Z,7.85
2023-04-27T03:06:56.540Z,5.25
2023-04-27T03:09:26.186Z,8.60
2023-04-27T03:11:54.385Z,13.27
2023-04-27T03:14:23.185Z,5.45
2023-04-27T03:16:53.165Z,4.28
2023-04-27T03:19:21.544Z,6.97
2023-04-27T03:21:49.879Z,10.43
2023-04-27T03:24:18.240Z,7.65
2023-04-27T03:26:47.804Z,11.30
2023-04-27T03:29:16.058Z,12.75
2023-04-27T03:31:44.281Z,20.15
2023-04-27T03:34:12.522Z,31.40
2023-04-27T03:36:41.172Z,37.60
2023-04-27T03:39:11.943Z,41.97
2023-04-27T03:41:40.353Z,43.20
2023-04-27T03:44:10.027Z,34.15
2023-04-27T03:46:38.246Z,41.00
2023-04-27T03:49:06.679Z,39.55
2023-04-27T03:51:35.021Z,19.10
2023-04-27T03:54:03.179Z,14.35
2023-04-27T03:56:33.559Z,4.85
2023-04-27T03:59:02.191Z,8.18
2023-04-27T04:01:36.308Z,6.88
2023-04-27T04:04:04.684Z,6.60
2023-04-27T04:06:33.655Z,9.55
2023-04-27T04:09:01.942Z,8.55
2023-04-27T04:11:30.585Z,7.88
2023-04-27T04:14:00.910Z,7.78
2023-04-27T04:16:29.382Z,4.95
2023-04-27T04:18:59.014Z,6.03
2023-04-27T04:21:27.629Z,8.73
2023-04-27T04:23:56.375Z,9.88
2023-04-27T04:26:25.079Z,10.40
2023-04-27T04:28:53.453Z,6.45
2023-04-27T04:31:21.775Z,8.70
2023-04-27T04:33:50.065Z,8.63
2023-04-27T04:36:19.699Z,9.60
2023-04-27T04:38:47.866Z,9.27
2023-04-27T04:41:17.480Z,5.47
2023-04-27T04:43:45.698Z,13.13
2023-04-27T04:46:14.016Z,9.13
2023-04-27T04:48:42.245Z,11.27
2023-04-27T04:51:10.430Z,13.15
2023-04-27T04:53:40.051Z,9.07
2023-04-27T04:56:12.079Z,12.27
2023-04-27T04:58:40.961Z,11.32
2023-04-27T05:01:09.266Z,10.38
2023-04-27T05:03:40.017Z,12.82
2023-04-27T05:06:08.744Z,20.13
2023-04-27T05:08:37.244Z,12.45
2023-04-27T05:11:06.920Z,13.52
2023-04-27T05:13:35.596Z,13.95
2023-04-27T05:16:06.112Z,20.38
2023-04-27T05:18:34.404Z,18.92
2023-04-27T05:21:02.624Z,13.70
2023-04-27T05:23:30.851Z,14.27
2023-04-27T05:25:59.133Z,13.90
2023-04-27T05:28:28.696Z,15.18
2023-04-27T05:30:56.871Z,17.33
2023-04-27T05:33:25.289Z,19.30
2023-04-27T05:35:53.481Z,20.17
2023-04-27T05:38:21.663Z,17.38
2023-04-27T05:40:55.692Z,16.92
2023-04-27T05:43:23.986Z,22.38
2023-04-27T05:45:54.242Z,12.90
2023-04-27T05:48:22.506Z,15.90
2023-04-27T05:50:50.733Z,16.17
2023-04-27T05:53:18.884Z,17.85
2023-04-27T05:55:47.153Z,17.60
2023-04-27T05:58:16.133Z,15.93
2023-04-27T06:00:44.328Z,14.60
2023-04-27T06:03:13.967Z,16.10
2023-04-27T06:05:42.354Z,16.17
2023-04-27T06:08:10.864Z,21.17
2023-04-27T06:10:39.143Z,16.45
2023-04-27T06:13:07.368Z,17.27
2023-04-27T06:15:35.636Z,15.77
2023-04-27T06:18:03.989Z,14.90
2023-04-27T06:20:33.643Z,16.08
2023-04-27T06:23:02.598Z,13.18
2023-04-27T06:25:30.940Z,15.90
2023-04-27T06:27:59.370Z,14.88
2023-04-27T06:30:27.661Z,21.10
2023-04-27T06:32:55.893Z,19.58
2023-04-27T06:35:24.128Z,15.60
2023-04-27T06:37:53.685Z,18.55
2023-04-27T06:40:22.135Z,17.98
2023-04-27T06:42:50.291Z,16.40
2023-04-27T06:45:18.537Z,12.32
2023-04-27T06:47:47.497Z,15.07
2023-04-27T06:50:16.699Z,11.43
2023-04-27T06:52:46.263Z,15.23
2023-04-27T06:55:15.836Z,16.80
2023-04-27T06:57:44.029Z,16.67
2023-04-27T07:00:14.353Z,14.20
2023-04-27T07:02:42.660Z,9.93
2023-04-27T07:05:11.233Z,14.32
2023-04-27T07:07:39.402Z,11.93
2023-04-27T07:10:09.254Z,10.02
2023-04-27T07:12:39.148Z,12.23
2023-04-27T07:15:10.577Z,9.35
2023-04-27T07:17:40.655Z,12.88
2023-04-27T07:20:10.106Z,9.52
2023-04-27T07:22:38.380Z,6.82
2023-04-27T07:25:07.833Z,10.75
2023-04-27T07:27:36.172Z,9.27
2023-04-27T07:30:09.346Z,10.15
2023-04-27T07:32:38.335Z,10.00
2023-04-27T07:35:07.704Z,14.20
2023-04-27T07:37:37.300Z,7.35
2023-04-27T07:40:10.967Z,7.45
2023-04-27T07:42:39.746Z,7.60
2023-04-27T07:45:10.670Z,8.43
2023-04-27T07:47:39.048Z,7.00
2023-04-27T07:50:08.988Z,9.77
2023-04-27T07:52:37.531Z,8.60
2023-04-27T07:55:08.137Z,8.30
2023-04-27T07:57:36.400Z,3.63
2023-04-27T08:00:08.908Z,2.67
2023-04-27T08:02:42.611Z,2.28
2023-04-27T08:05:11.490Z,6.40
2023-04-27T08:07:44.180Z,9.45
2023-04-27T08:10:13.273Z,9.35
2023-04-27T08:12:41.688Z,5.65
2023-04-27T08:15:11.467Z,6.20
2023-04-27T08:17:41.187Z,4.13
2023-04-27T08:20:12.536Z,4.82
2023-04-27T08:22:41.286Z,3.22
2023-04-27T08:25:10.664Z,3.75
2023-04-27T08:27:39.355Z,6.68
2023-04-27T08:30:08.737Z,6.07
2023-04-27T08:32:36.930Z,8.13
2023-04-27T08:35:05.655Z,4.95
2023-04-27T08:37:35.166Z,4.88
2023-04-27T08:40:06.986Z,2.88
2023-04-27T08:42:35.372Z,4.85
2023-04-27T08:45:04.450Z,5.50
2023-04-27T08:47:42.523Z,6.22
2023-04-27T08:50:13.150Z,4.03
2023-04-27T08:52:45.763Z,1.73
2023-04-27T08:55:16.421Z,6.28
2023-04-27T08:57:56.192Z,5.18
2023-04-27T09:00:26.258Z,4.72
2023-04-27T09:02:55.120Z,3.63
2023-04-27T09:05:24.726Z,5.78
2023-04-27T09:08:07.856Z,3.08
2023-04-27T09:10:47.258Z,3.70
2023-04-27T09:13:15.525Z,3.75
2023-04-27T09:15:47.742Z,4.60
2023-04-27T09:18:18.358Z,10.75
2023-04-27T09:20:47.777Z,12.13
2023-04-27T09:23:28.925Z,8.65
2023-04-27T09:25:57.908Z,4.72
2023-04-27T09:28:27.692Z,15.27
2023-04-27T09:30:57.422Z,6.22
2023-04-27T09:33:27.067Z,6.40
2023-04-27T09:35:55.564Z,4.53
2023-04-27T09:38:24.602Z,5.43
2023-04-27T09:40:55.531Z,4.72
2023-04-27T09:43:24.879Z,4.72
2023-04-27T09:45:53.171Z,3.63
2023-04-27T09:48:22.859Z,8.95
2023-04-27T09:50:52.713Z,9.52
2023-04-27T09:53:24.445Z,6.28
2023-04-27T09:56:08.353Z,4.53
2023-04-27T09:58:54.182Z,5.30
2023-04-27T10:01:31.576Z,4.93
2023-04-27T10:04:20.550Z,3.42
2023-04-27T10:07:01.199Z,3.95
2023-04-27T10:09:35.371Z,4.50
2023-04-27T10:12:18.183Z,5.40
2023-04-27T10:14:54.222Z,3.92
2023-04-27T10:17:27.539Z,8.20
2023-04-27T10:19:58.540Z,4.05
2023-04-27T10:22:40.726Z,6.53
2023-04-27T10:25:17.989Z,4.70
2023-04-27T10:27:52.695Z,4.50
2023-04-27T10:30:22.248Z,10.02
2023-04-27T10:32:56.102Z,4.85
2023-04-27T10:35:33.543Z,3.38
2023-04-27T10:38:08.526Z,4.55
2023-04-27T10:40:38.114Z,6.97
2023-04-27T10:43:12.225Z,4.43
2023-04-27T10:45:45.053Z,5.40
2023-04-27T10:48:15.691Z,7.25
2023-04-27T10:50:44.728Z,4.05
2023-04-27T10:53:13.267Z,8.13
2023-04-27T10:55:41.874Z,4.82
2023-04-27T10:58:11.630Z,3.83
2023-04-27T11:00:44.152Z,5.00
2023-04-27T11:03:16.373Z,6.90
2023-04-27T11:05:46.144Z,4.60
2023-04-27T11:08:15.979Z,3.75
2023-04-27T11:10:47.120Z,3.83
2023-04-27T11:13:18.680Z,6.55
2023-04-27T11:15:48.863Z,4.60
2023-04-27T11:18:21.454Z,4.28
2023-04-27T11:20:54.919Z,6.10
2023-04-27T11:23:36.824Z,4.22
2023-04-27T11:26:10.901Z,2.50
2023-04-27T11:28:41.676Z,3.60
2023-04-27T11:31:11.357Z,5.10
2023-04-27T11:33:40.982Z,5.18
2023-04-27T11:36:18.118Z,2.65
2023-04-27T11:38:46.670Z,4.40
2023-04-27T11:41:14.929Z,4.03
2023-04-27T11:43:49.203Z,3.53
2023-04-27T11:46:21.283Z,7.15
2023-04-27T11:48:49.986Z,5.63
2023-04-27T11:51:18.162Z,5.72
2023-04-27T11:53:51.173Z,5.82
2023-04-27T11:56:19.362Z,4.35
2023-04-27T11:58:48.940Z,4.88
2023-04-27T12:01:24.865Z,4.03
2023-04-27T12:04:03.601Z,4.32
2023-04-27T12:06:33.799Z,4.60
2023-04-27T12:09:02.190Z,4.32
2023-04-27T12:11:30.470Z,3.83
2023-04-27T12:14:02.603Z,6.15
2023-04-27T12:16:31.203Z,3.45
2023-04-27T12:19:01.619Z,3.35
2023-04-27T12:21:29.876Z,3.47
2023-04-27T12:23:58.031Z,6.35
2023-04-27T12:26:26.665Z,9.15
2023-04-27T12:28:54.910Z,6.97
2023-04-27T12:31:27.676Z,5.88
2023-04-27T12:33:56.179Z,5.82
2023-04-27T12:36:24.480Z,4.93
2023-04-27T12:38:53.364Z,5.13
2023-04-27T12:41:23.280Z,3.20
2023-04-27T12:43:51.428Z,5.18
2023-04-27T12:46:22.794Z,2.63
2023-04-27T12:48:52.530Z,4.13
2023-04-27T12:51:22.715Z,6.90
2023-04-27T12:53:50.889Z,3.17
2023-04-27T12:56:21.666Z,4.30
2023-04-27T12:58:49.828Z,5.80
2023-04-27T13:01:19.139Z,8.20
2023-04-27T13:03:52.670Z,5.63
2023-04-27T13:06:22.757Z,5.22
2023-04-27T13:08:51.497Z,5.50
2023-04-27T13:11:20.112Z,5.15
2023-04-27T13:13:48.359Z,5.22
2023-04-27T13:16:19.147Z,6.30
2023-04-27T13:18:49.834Z,6.32
2023-04-27T13:21:20.364Z,5.22
2023-04-27T13:23:49.291Z,3.10
2023-04-27T13:26:17.937Z,7.47
2023-04-27T13:28:46.266Z,4.50
2023-04-27T13:31:14.458Z,7.50
2023-04-27T13:33:44.233Z,3.25
2023-04-27T13:36:14.114Z,5.40
2023-04-27T13:38:43.697Z,4.03
2023-04-27T13:41:11.903Z,2.70
2023-04-27T13:43:40.339Z,3.25
2023-04-27T13:46:08.535Z,3.17
2023-04-27T13:48:36.727Z,7.95
2023-04-27T13:51:07.213Z,3.50
2023-04-27T13:53:35.419Z,7.38
2023-04-27T13:56:05.201Z,3.75
2023-04-27T13:58:33.631Z,3.53
2023-04-27T14:01:01.890Z,7.60
2023-04-27T14:03:30.436Z,4.82
2023-04-27T14:06:01.441Z,5.05
2023-04-27T14:08:29.691Z,5.68
2023-04-27T14:10:57.868Z,4.97
2023-04-27T14:13:29.774Z,59.47
2023-04-27T14:15:57.982Z,14.43
2023-04-27T14:18:32.308Z,4.85
2023-04-27T14:21:01.048Z,6.65
2023-04-27T14:23:29.313Z,8.73
2023-04-27T14:25:57.515Z,4.75
2023-04-27T14:28:27.318Z,8.02
2023-04-27T14:30:55.508Z,4.07
2023-04-27T14:33:23.664Z,4.05
2023-04-27T14:35:51.853Z,10.27
2023-04-27T14:38:22.917Z,6.35
2023-04-27T14:40:51.112Z,7.47
2023-04-27T14:43:19.270Z,3.28
2023-04-27T14:45:52.710Z,6.50
2023-04-27T14:48:23.796Z,5.00
2023-04-27T14:50:52.050Z,3.47
2023-04-27T14:53:20.252Z,7.80
2023-04-27T14:55:48.598Z,4.15
2023-04-27T14:58:16.934Z,5.63
2023-04-27T15:00:45.121Z,8.93
2023-04-27T15:03:14.856Z,3.97
2023-04-27T15:05:43.319Z,4.10
2023-04-27T15:08:11.563Z,3.90
2023-04-27T15:10:42.396Z,5.07
2023-04-27T15:13:10.693Z,4.40
2023-04-27T15:15:39.292Z,3.78
2023-04-27T15:18:08.917Z,4.68
2023-04-27T15:20:38.497Z,8.25
2023-04-27T15:23:06.895Z,3.63
2023-04-27T15:25:35.353Z,3.72
2023-04-27T15:28:03.653Z,9.00
2023-04-27T15:30:31.828Z,3.63
2023-04-27T15:33:03.123Z,5.15
2023-04-27T15:35:31.492Z,4.88
2023-04-27T15:38:01.908Z,4.63
2023-04-27T15:40:30.226Z,3.50
2023-04-27T15:42:58.989Z,5.30
2023-04-27T15:45:30.578Z,6.53
2023-04-27T15:47:59.543Z,3.92
2023-04-27T15:50:27.848Z,5.03
2023-04-27T15:52:56.173Z,10.35
2023-04-27T15:55:25.925Z,4.80
2023-04-27T15:57:54.726Z,4.70
2023-04-27T16:00:23.580Z,5.50
2023-04-27T16:02:52.297Z,7.32
2023-04-27T16:05:23.666Z,4.07
2023-04-27T16:07:51.872Z,5.43
2023-04-27T16:10:20.114Z,3.13
2023-04-27T16:12:50.258Z,5.63
2023-04-27T16:15:18.668Z,5.05
2023-04-27T16:17:49.520Z,5.55
2023-04-27T16:20:17.913Z,7.38
2023-04-27T16:22:46.104Z,6.68
2023-04-27T16:25:14.328Z,6.47
2023-04-27T16:27:43.452Z,6.93
2023-04-27T16:30:14.528Z,6.53
2023-04-27T16:32:42.861Z,6.65
2023-04-27T16:35:11.263Z,12.90
2023-04-27T16:37:39.410Z,7.03
2023-04-27T16:40:09.769Z,9.85
2023-04-27T16:42:40.036Z,5.18
2023-04-27T16:45:10.692Z,3.22
2023-04-27T16:47:41.788Z,3.20
2023-04-27T16:50:12.112Z,4.07
2023-04-27T16:52:40.549Z,5.82
2023-04-27T16:55:09.254Z,4.70
2023-04-27T16:57:37.450Z,3.40
2023-04-27T17:00:09.561Z,6.18
2023-04-27T17:02:38.862Z,5.07
2023-04-27T17:05:10.235Z,4.38
2023-04-27T17:07:38.454Z,5.57
2023-04-27T17:10:09.257Z,4.80
2023-04-27T17:12:38.210Z,5.55
2023-04-27T17:15:08.211Z,6.80
2023-04-27T17:17:36.744Z,7.78
2023-04-27T17:20:06.345Z,7.68
2023-04-27T17:22:35.947Z,9.15
2023-04-27T17:25:04.304Z,6.72
2023-04-27T17:27:32.506Z,9.68
2023-04-27T17:30:04.814Z,5.60
2023-04-27T17:32:33.410Z,10.07
2023-04-27T17:35:01.604Z,30.77
2023-04-27T17:37:29.784Z,44.90
2023-04-27T17:40:01.809Z,26.55
2023-04-27T17:42:30.013Z,47.22
2023-04-27T17:44:58.180Z,28.10
2023-04-27T17:47:28.849Z,28.10
2023-04-27T17:49:57.017Z,22.33
2023-04-27T17:52:25.221Z,23.33
2023-04-27T17:54:55.665Z,35.17
2023-04-27T17:57:25.485Z,56.40
2023-04-27T17:59:53.666Z,54.15
2023-04-27T18:02:21.947Z,55.42
2023-04-27T18:04:50.241Z,51.60
2023-04-27T18:07:19.853Z,60.10
2023-04-27T18:09:48.012Z,54.63
2023-04-27T18:12:16.476Z,74.75
2023-04-27T18:14:46.004Z,65.13
2023-04-27T18:17:14.312Z,62.45
2023-04-27T18:19:42.487Z,56.97
2023-04-27T18:22:11.034Z,48.10
2023-04-27T18:24:40.461Z,38.97
2023-04-27T18:27:08.748Z,35.33
2023-04-27T18:29:36.898Z,30.30
2023-04-27T18:32:07.173Z,26.30
2023-04-27T18:34:35.497Z,30.45
2023-04-27T18:37:03.743Z,32.42
2023-04-27T18:39:31.907Z,35.20
2023-04-27T18:42:03.048Z,34.50
2023-04-27T18:44:31.352Z,34.58
2023-04-27T18:47:00.008Z,28.92
2023-04-27T18:49:32.325Z,21.20
2023-04-27T18:52:02.713Z,19.13
2023-04-27T18:54:30.903Z,16.95
2023-04-27T18:57:00.311Z,16.85
2023-04-27T18:59:28.761Z,14.35
2023-04-27T19:01:57.133Z,14.90
2023-04-27T19:04:26.091Z,12.50
2023-04-27T19:06:55.758Z,11.85
2023-04-27T19:09:23.935Z,11.75
2023-04-27T19:12:01.962Z,11.75
2023-04-27T19:14:31.893Z,11.85
2023-04-27T19:17:00.195Z,12.15
2023-04-27T19:19:28.454Z,16.65
2023-04-27T19:22:00.284Z,19.83
2023-04-27T19:24:28.569Z,25.35
2023-04-27T19:26:56.742Z,24.60
2023-04-27T19:29:26.468Z,25.60
2023-04-27T19:31:55.201Z,27.75
2023-04-27T19:34:23.405Z,30.48
2023-04-27T19:36:51.570Z,28.52
2023-04-27T19:39:22.707Z,20.67
2023-04-27T19:41:51.204Z,27.23
2023-04-27T19:44:22.349Z,21.15
2023-04-27T19:46:50.520Z,21.42
2023-04-27T19:49:18.690Z,23.20
2023-04-27T19:51:47.078Z,29.52
2023-04-27T19:54:15.524Z,27.02
2023-04-27T19:56:45.184Z,31.58
2023-04-27T19:59:16.657Z,44.05
2023-04-27T20:01:44.848Z,37.78
2023-04-27T20:04:13.293Z,27.48
2023-04-27T20:06:43.366Z,24.40
2023-04-27T20:09:11.801Z,25.10
2023-04-27T20:11:40.040Z,20.65
2023-04-27T20:14:09.865Z,23.30
2023-04-27T20:16:40.697Z,19.50
2023-04-27T20:19:10.797Z,23.38
2023-04-27T20:21:39.290Z,22.45
2023-04-27T20:24:08.271Z,21.58
2023-04-27T20:26:36.578Z,32.40
2023-04-27T20:29:04.758Z,27.70
2023-04-27T20:31:34.434Z,27.23
2023-04-27T20:34:02.632Z,27.02
2023-04-27T20:36:31.929Z,28.45
2023-04-27T20:39:00.918Z,24.92
2023-04-27T20:41:29.238Z,16.88
2023-04-27T20:43:58.523Z,15.00
2023-04-27T20:46:27.229Z,9.05
2023-04-27T20:48:56.969Z,10.05
2023-04-27T20:51:27.211Z,12.23
2023-04-27T20:53:55.436Z,14.48
2023-04-27T20:56:23.627Z,15.07
2023-04-27T20:58:51.781Z,17.08
2023-04-27T21:01:21.817Z,16.10
2023-04-27T21:03:50.280Z,13.55
2023-04-27T21:06:19.918Z,15.80
2023-04-27T21:08:48.105Z,15.63
2023-04-27T21:11:18.017Z,17.92
2023-04-27T21:13:46.471Z,14.65
2023-04-27T21:16:14.699Z,15.70
2023-04-27T21:18:42.893Z,15.90
2023-04-27T21:21:11.064Z,14.70
2023-04-27T21:23:40.727Z,18.80
2023-04-27T21:26:09.395Z,20.90
2023-04-27T21:28:37.548Z,19.50
2023-04-27T21:31:06.492Z,15.50
2023-04-27T21:33:34.723Z,14.35
2023-04-27T21:36:04.641Z,14.18
2023-04-27T21:38:32.784Z,17.98
2023-04-27T21:41:04.478Z,13.43
2023-04-27T21:43:32.670Z,16.75
2023-04-27T21:46:00.950Z,14.32
2023-04-27T21:48:29.356Z,15.73
2023-04-27T21:50:58.948Z,14.07
2023-04-27T21:53:27.315Z,12.38
2023-04-27T21:55:57.694Z,13.45
2023-04-27T21:58:29.579Z,9.68
2023-04-27T22:00:57.820Z,9.43
2023-04-27T22:03:26.225Z,13.13
2023-04-27T22:05:57.761Z,10.57
2023-04-27T22:08:26.246Z,10.43
2023-04-27T22:10:54.474Z,7.57
2023-04-27T22:13:22.917Z,7.95
2023-04-27T22:15:52.449Z,10.98
2023-04-27T22:18:20.658Z,9.30
2023-04-27T22:20:49.362Z,13.75
2023-04-27T22:23:17.667Z,9.93
2023-04-27T22:25:46.469Z,9.30
2023-04-27T22:28:14.672Z,8.00
2023-04-27T22:30:42.960Z,9.57
2023-04-27T22:33:12.665Z,11.68
2023-04-27T22:35:41.023Z,9.32
2023-04-27T22:38:10.178Z,8.43
2023-04-27T22:40:41.148Z,9.38
2023-04-27T22:43:09.327Z,12.95
2023-04-27T22:45:38.867Z,14.02
2023-04-27T22:48:07.793Z,13.63
2023-04-27T22:50:37.752Z,8.63
2023-04-27T22:53:06.027Z,8.25
2023-04-27T22:55:34.221Z,10.85
2023-04-27T22:58:02.393Z,7.95
2023-04-27T23:00:30.706Z,10.38
2023-04-27T23:02:58.967Z,12.65
2023-04-27T23:05:27.402Z,7.03
2023-04-27T23:07:57.150Z,7.18
2023-04-27T23:10:30.919Z,9.55
2023-04-27T23:13:01.875Z,8.82
2023-04-27T23:15:30.263Z,10.50
2023-04-27T23:18:00.417Z,6.15
2023-04-27T23:20:29.336Z,8.35
2023-04-27T23:22:59.176Z,7.25
2023-04-27T23:25:27.552Z,8.90
2023-04-27T23:27:55.721Z,9.07
2023-04-27T23:30:24.008Z,12.93
2023-04-27T23:32:52.451Z,11.73
2023-04-27T23:35:20.988Z,7.80
2023-04-27T23:37:49.187Z,7.20
2023-04-27T23:40:18.839Z,6.57
2023-04-27T23:42:47.437Z,6.82
2023-04-27T23:45:16.410Z,7.43
2023-04-27T23:47:44.786Z,11.02
2023-04-27T23:50:12.960Z,8.98
2023-04-27T23:52:41.126Z,6.47
2023-04-27T23:55:10.274Z,11.00
2023-04-27T23:57:42.865Z,8.45
